Time;durP1;ratioP1;P1;durP2;ratioP2;P2;SDS_P1;SDS_P2;PMS_P1;PMS_P2;Temp;Humidity;BMP_temperature;BMP_pressure;BME280_temperature;BME280_humidity;BME280_pressure;Samples;Min_cycle;Max_cycle;Signal;HPM_P1;HPM_P2
2021/05/08 00:00:49;;;;;;;22.80;15.27;;;;;;;;;;5095368;28;20454;-55
2021/05/08 00:03:16;;;;;;;21.43;14.73;;;;;;;;;;5095593;28;20469;-55
2021/05/08 00:05:43;;;;;;;22.37;15.53;;;;;;;;;;5095573;28;20449;-55
2021/05/08 00:08:10;;;;;;;28.83;16.10;;;;;;;;;;5095360;28;20453;-55
2021/05/08 00:10:36;;;;;;;20.53;15.33;;;;;;;;;;5095347;28;20493;-56
2021/05/08 00:13:03;;;;;;;29.17;15.97;;;;;;;;;;5095127;28;20513;-56
2021/05/08 00:15:30;;;;;;;19.60;14.47;;;;;;;;;;5095525;28;20446;-57
2021/05/08 00:17:56;;;;;;;31.63;19.70;;;;;;;;;;5095284;28;20449;-56
2021/05/08 00:20:23;;;;;;;33.60;18.40;;;;;;;;;;5095009;28;20955;-57
2021/05/08 00:22:50;;;;;;;35.63;19.00;;;;;;;;;;5095286;28;20469;-55
2021/05/08 00:25:17;;;;;;;26.33;17.17;;;;;;;;;;5095167;28;20455;-55
2021/05/08 00:27:43;;;;;;;27.00;16.63;;;;;;;;;;5094936;28;20525;-55
2021/05/08 00:30:10;;;;;;;24.60;15.40;;;;;;;;;;5095009;28;20876;-58
2021/05/08 00:32:37;;;;;;;26.63;17.17;;;;;;;;;;5094929;28;20981;-58
2021/05/08 00:35:04;;;;;;;26.13;16.70;;;;;;;;;;5094833;28;20454;-56
2021/05/08 00:37:30;;;;;;;25.70;16.20;;;;;;;;;;5094872;28;20448;-55
2021/05/08 00:39:58;;;;;;;24.40;16.80;;;;;;;;;;5094444;28;20455;-58
2021/05/08 00:42:24;;;;;;;27.03;18.10;;;;;;;;;;5094651;28;20518;-57
2021/05/08 00:44:51;;;;;;;21.30;15.90;;;;;;;;;;5094927;28;20439;-55
2021/05/08 00:47:17;;;;;;;20.60;15.83;;;;;;;;;;5094792;28;20452;-57
2021/05/08 00:49:45;;;;;;;22.90;15.47;;;;;;;;;;5094607;28;20457;-55
2021/05/08 00:52:13;;;;;;;28.33;16.20;;;;;;;;;;5094425;28;20530;-57
2021/05/08 00:54:40;;;;;;;22.37;15.43;;;;;;;;;;5094578;28;20443;-54
2021/05/08 00:57:07;;;;;;;26.30;17.00;;;;;;;;;;5094598;28;20450;-55
2021/05/08 00:59:35;;;;;;;23.37;15.30;;;;;;;;;;5094576;28;20458;-58
2021/05/08 01:02:02;;;;;;;20.00;14.17;;;;;;;;;;5094481;28;20443;-56
2021/05/08 01:04:29;;;;;;;24.40;15.40;;;;;;;;;;5094258;28;20468;-57
2021/05/08 01:06:55;;;;;;;19.93;14.77;;;;;;;;;;5094200;28;20938;-57
2021/05/08 01:09:23;;;;;;;22.73;16.67;;;;;;;;;;5094248;28;20460;-56
2021/05/08 01:11:50;;;;;;;26.80;16.07;;;;;;;;;;5094016;28;21058;-54
2021/05/08 01:14:18;;;;;;;23.00;14.83;;;;;;;;;;5094121;28;20948;-55
2021/05/08 01:16:44;;;;;;;19.70;14.50;;;;;;;;;;5094104;28;20446;-53
2021/05/08 01:19:12;;;;;;;21.53;15.27;;;;;;;;;;5093997;28;20485;-57
2021/05/08 01:21:39;;;;;;;19.93;13.70;;;;;;;;;;5093976;28;20452;-57
2021/05/08 01:24:06;;;;;;;22.53;14.27;;;;;;;;;;5093846;28;20811;-58
2021/05/08 01:26:32;;;;;;;21.03;14.27;;;;;;;;;;5094154;28;20819;-58
2021/05/08 01:28:59;;;;;;;18.77;13.80;;;;;;;;;;5093862;28;20458;-58
2021/05/08 01:31:26;;;;;;;18.77;13.77;;;;;;;;;;5093738;28;20869;-57
2021/05/08 01:33:52;;;;;;;17.30;13.70;;;;;;;;;;5093692;28;20464;-56
2021/05/08 01:36:19;;;;;;;17.27;12.53;;;;;;;;;;5093543;28;20450;-58
2021/05/08 01:38:46;;;;;;;17.47;13.93;;;;;;;;;;5093664;28;20446;-58
2021/05/08 01:41:13;;;;;;;18.40;12.97;;;;;;;;;;5093415;28;20446;-58
2021/05/08 01:43:39;;;;;;;16.80;12.87;;;;;;;;;;5093667;28;20485;-57
2021/05/08 01:46:06;;;;;;;18.23;12.83;;;;;;;;;;5093466;28;20495;-58
2021/05/08 01:48:32;;;;;;;18.87;13.20;;;;;;;;;;5093036;28;20446;-58
2021/05/08 01:50:59;;;;;;;18.90;12.77;;;;;;;;;;5093016;28;20489;-58
2021/05/08 01:53:26;;;;;;;17.10;11.87;;;;;;;;;;5093732;28;20470;-56
2021/05/08 01:55:54;;;;;;;15.10;10.37;;;;;;;;;;5093641;28;20446;-57
2021/05/08 01:58:20;;;;;;;16.27;11.60;;;;;;;;;;5093251;28;20458;-58
2021/05/08 02:00:48;;;;;;;15.77;10.77;;;;;;;;;;5093238;28;20827;-58
2021/05/08 02:03:15;;;;;;;16.47;11.33;;;;;;;;;;5093276;28;20473;-55
2021/05/08 02:05:42;;;;;;;17.37;13.07;;;;;;;;;;5093117;28;20454;-58
2021/05/08 02:08:09;;;;;;;14.73;10.50;;;;;;;;;;5093272;28;20496;-58
2021/05/08 02:10:36;;;;;;;15.43;10.30;;;;;;;;;;5093202;28;20449;-58
2021/05/08 02:13:04;;;;;;;16.93;11.27;;;;;;;;;;5092969;28;20477;-56
2021/05/08 02:15:31;;;;;;;18.83;11.00;;;;;;;;;;5092887;28;20442;-53
2021/05/08 02:17:57;;;;;;;15.70;11.10;;;;;;;;;;5093654;28;20497;-57
2021/05/08 02:20:26;;;;;;;14.77;11.13;;;;;;;;;;5094124;28;20450;-57
2021/05/08 02:22:53;;;;;;;15.23;11.57;;;;;;;;;;5095520;28;20492;-58
2021/05/08 02:25:20;;;;;;;17.30;11.07;;;;;;;;;;5093498;28;20455;-56
2021/05/08 02:27:46;;;;;;;15.97;11.43;;;;;;;;;;5092981;28;20462;-58
2021/05/08 02:30:15;;;;;;;15.80;11.67;;;;;;;;;;5092655;28;20449;-58
2021/05/08 02:32:42;;;;;;;17.80;12.13;;;;;;;;;;5093632;28;21026;-56
2021/05/08 02:35:09;;;;;;;20.57;12.40;;;;;;;;;;5094075;28;20462;-58
2021/05/08 02:37:36;;;;;;;21.57;13.23;;;;;;;;;;5093263;28;20457;-58
2021/05/08 02:40:04;;;;;;;18.27;13.30;;;;;;;;;;5092581;28;20446;-58
2021/05/08 02:42:30;;;;;;;18.03;12.50;;;;;;;;;;5092411;28;20471;-58
2021/05/08 02:44:57;;;;;;;17.67;11.77;;;;;;;;;;5092420;28;20438;-58
2021/05/08 02:47:24;;;;;;;17.70;13.30;;;;;;;;;;5092238;28;20571;-58
2021/05/08 02:49:51;;;;;;;20.17;13.60;;;;;;;;;;5092273;28;20452;-57
2021/05/08 02:52:18;;;;;;;18.93;13.63;;;;;;;;;;5092503;28;20485;-58
2021/05/08 02:54:45;;;;;;;17.90;13.03;;;;;;;;;;5092313;28;20461;-57
2021/05/08 02:57:12;;;;;;;17.60;13.67;;;;;;;;;;5092278;28;20450;-58
2021/05/08 02:59:38;;;;;;;21.53;14.87;;;;;;;;;;5091364;28;20450;-58
2021/05/08 03:02:05;;;;;;;20.70;14.27;;;;;;;;;;5092290;28;20449;-58
2021/05/08 03:04:33;;;;;;;20.07;13.83;;;;;;;;;;5092085;28;20446;-57
2021/05/08 03:07:01;;;;;;;20.03;14.27;;;;;;;;;;5092444;28;20442;-57
2021/05/08 03:09:28;;;;;;;18.27;13.23;;;;;;;;;;5092445;28;20446;-56
2021/05/08 03:11:54;;;;;;;17.33;13.03;;;;;;;;;;5092131;28;20481;-58
2021/05/08 03:14:21;;;;;;;19.63;14.03;;;;;;;;;;5091942;28;21020;-56
2021/05/08 03:16:47;;;;;;;17.70;13.23;;;;;;;;;;5092286;28;20521;-58
2021/05/08 03:19:14;;;;;;;22.17;14.53;;;;;;;;;;5092089;28;20454;-58
2021/05/08 03:21:41;;;;;;;23.90;14.80;;;;;;;;;;5091878;28;20448;-58
2021/05/08 03:24:08;;;;;;;24.67;15.13;;;;;;;;;;5092114;28;20469;-58
2021/05/08 03:26:35;;;;;;;21.27;15.03;;;;;;;;;;5091895;28;20455;-58
2021/05/08 03:29:02;;;;;;;20.37;14.90;;;;;;;;;;5091569;28;20938;-58
2021/05/08 03:31:29;;;;;;;19.60;14.33;;;;;;;;;;5091741;28;20902;-57
2021/05/08 03:33:55;;;;;;;19.33;13.90;;;;;;;;;;5091762;28;20993;-58
2021/05/08 03:36:22;;;;;;;18.23;13.50;;;;;;;;;;5091745;28;20446;-58
2021/05/08 03:38:49;;;;;;;25.13;17.30;;;;;;;;;;5091846;28;20449;-57
2021/05/08 03:41:16;;;;;;;40.47;24.90;;;;;;;;;;5091446;28;20506;-57
2021/05/08 03:43:42;;;;;;;55.30;36.57;;;;;;;;;;5091552;28;20485;-58
2021/05/08 03:46:09;;;;;;;72.33;42.83;;;;;;;;;;5091820;28;20454;-58
2021/05/08 03:48:35;;;;;;;73.83;48.83;;;;;;;;;;5091649;28;20459;-58
2021/05/08 03:51:02;;;;;;;78.13;49.97;;;;;;;;;;5091448;28;20802;-57
2021/05/08 03:53:29;;;;;;;81.17;49.90;;;;;;;;;;5091565;28;20473;-53
2021/05/08 03:55:56;;;;;;;82.90;51.87;;;;;;;;;;5091492;28;20817;-57
2021/05/08 03:58:25;;;;;;;81.87;52.87;;;;;;;;;;5091820;28;20839;-55
2021/05/08 04:00:52;;;;;;;79.83;52.90;;;;;;;;;;5091413;28;20532;-58
2021/05/08 04:03:19;;;;;;;83.50;54.53;;;;;;;;;;5091450;28;20840;-56
2021/05/08 04:05:45;;;;;;;84.63;56.20;;;;;;;;;;5091595;28;20473;-57
2021/05/08 04:08:12;;;;;;;79.13;55.87;;;;;;;;;;5091598;28;20462;-57
2021/05/08 04:10:39;;;;;;;75.23;52.27;;;;;;;;;;5091064;28;20450;-58
2021/05/08 04:13:06;;;;;;;75.60;53.40;;;;;;;;;;5095213;28;20473;-58
2021/05/08 04:15:33;;;;;;;77.80;54.97;;;;;;;;;;5095229;28;20450;-57
2021/05/08 04:17:59;;;;;;;74.17;48.37;;;;;;;;;;5095270;28;20474;-58
2021/05/08 04:20:26;;;;;;;66.63;44.27;;;;;;;;;;5094905;28;20446;-58
2021/05/08 04:22:52;;;;;;;58.07;39.93;;;;;;;;;;5095057;28;20466;-58
2021/05/08 04:25:19;;;;;;;51.87;36.27;;;;;;;;;;5095108;28;20471;-56
2021/05/08 04:27:45;;;;;;;44.60;31.10;;;;;;;;;;5095228;28;20527;-58
2021/05/08 04:30:14;;;;;;;43.63;29.37;;;;;;;;;;5094984;28;20450;-57
2021/05/08 04:32:40;;;;;;;38.57;25.17;;;;;;;;;;5094816;28;20492;-58
2021/05/08 04:35:07;;;;;;;33.10;24.07;;;;;;;;;;5094890;28;20553;-58
2021/05/08 04:37:34;;;;;;;34.40;22.50;;;;;;;;;;5094651;28;20491;-58
2021/05/08 04:40:00;;;;;;;36.97;23.87;;;;;;;;;;5094652;28;20454;-58
2021/05/08 04:42:27;;;;;;;32.87;22.70;;;;;;;;;;5094902;28;20457;-58
2021/05/08 04:44:53;;;;;;;29.90;20.40;;;;;;;;;;5094679;28;20457;-58
2021/05/08 04:47:21;;;;;;;31.87;18.80;;;;;;;;;;5094666;28;20461;-58
2021/05/08 04:49:47;;;;;;;29.67;19.67;;;;;;;;;;5094570;28;21011;-57
2021/05/08 04:52:14;;;;;;;25.33;17.87;;;;;;;;;;5094481;28;20995;-57
2021/05/08 04:54:41;;;;;;;23.07;17.30;;;;;;;;;;5094733;28;20480;-56
2021/05/08 04:57:07;;;;;;;20.70;16.50;;;;;;;;;;5094735;28;20457;-57
2021/05/08 04:59:34;;;;;;;22.53;16.00;;;;;;;;;;5094534;28;20473;-55
2021/05/08 05:02:01;;;;;;;21.07;14.40;;;;;;;;;;5094448;28;20453;-57
2021/05/08 05:04:28;;;;;;;18.87;13.60;;;;;;;;;;5094222;28;20865;-57
2021/05/08 05:06:55;;;;;;;19.10;13.97;;;;;;;;;;5094093;28;20493;-56
2021/05/08 05:09:23;;;;;;;17.33;12.87;;;;;;;;;;5094366;28;20450;-54
2021/05/08 05:11:50;;;;;;;17.27;12.37;;;;;;;;;;5094136;28;20482;-55
2021/05/08 05:14:16;;;;;;;18.43;12.67;;;;;;;;;;5094129;28;20470;-57
2021/05/08 05:16:43;;;;;;;16.63;12.57;;;;;;;;;;5094109;28;20453;-57
2021/05/08 05:19:09;;;;;;;16.57;12.60;;;;;;;;;;5094025;28;20503;-56
2021/05/08 05:21:37;;;;;;;18.57;12.97;;;;;;;;;;5093780;28;20451;-58
2021/05/08 05:24:04;;;;;;;20.40;13.10;;;;;;;;;;5093115;28;20466;-56
2021/05/08 05:26:30;;;;;;;17.33;12.87;;;;;;;;;;5093981;28;20450;-55
2021/05/08 05:28:57;;;;;;;15.80;12.30;;;;;;;;;;5093891;28;20476;-56
2021/05/08 05:31:23;;;;;;;22.47;12.07;;;;;;;;;;5093459;28;20889;-55
2021/05/08 05:33:50;;;;;;;17.23;12.73;;;;;;;;;;5093543;28;20470;-55
2021/05/08 05:36:17;;;;;;;18.67;12.83;;;;;;;;;;5093993;28;20450;-57
2021/05/08 05:38:44;;;;;;;17.87;12.63;;;;;;;;;;5093814;28;20450;-53
2021/05/08 05:41:11;;;;;;;17.67;12.17;;;;;;;;;;5093647;28;20438;-54
2021/05/08 05:43:37;;;;;;;15.73;12.20;;;;;;;;;;5093303;28;20478;-58
2021/05/08 05:46:04;;;;;;;14.57;11.20;;;;;;;;;;5093518;28;20208;-57
2021/05/08 05:48:30;;;;;;;14.50;10.80;;;;;;;;;;5093412;28;20211;-54
2021/05/08 05:50:57;;;;;;;13.50;11.03;;;;;;;;;;5094487;28;20621;-58
2021/05/08 05:53:23;;;;;;;14.60;10.57;;;;;;;;;;5093831;28;20278;-58
2021/05/08 05:55:51;;;;;;;15.30;11.27;;;;;;;;;;5093546;28;20202;-55
2021/05/08 05:58:17;;;;;;;14.43;10.67;;;;;;;;;;5093379;28;20218;-56
2021/05/08 06:00:44;;;;;;;13.13;10.67;;;;;;;;;;5093488;28;20274;-58
2021/05/08 06:03:10;;;;;;;13.57;10.50;;;;;;;;;;5093696;28;20230;-59
2021/05/08 06:05:37;;;;;;;16.33;10.33;;;;;;;;;;5094652;28;20207;-58
2021/05/08 06:08:03;;;;;;;13.57;9.93;;;;;;;;;;5093486;28;20210;-56
2021/05/08 06:10:30;;;;;;;12.80;9.87;;;;;;;;;;5093254;28;20212;-58
2021/05/08 06:12:57;;;;;;;12.10;8.77;;;;;;;;;;5092917;28;20226;-57
2021/05/08 06:15:24;;;;;;;11.70;9.47;;;;;;;;;;5093037;28;20207;-54
2021/05/08 06:17:50;;;;;;;12.27;9.30;;;;;;;;;;5092705;28;20727;-59
2021/05/08 06:20:17;;;;;;;11.40;7.87;;;;;;;;;;5092927;28;20214;-57
2021/05/08 06:22:44;;;;;;;12.93;8.63;;;;;;;;;;5092842;28;20224;-58
2021/05/08 06:25:11;;;;;;;11.77;8.20;;;;;;;;;;5092989;28;20215;-58
2021/05/08 06:27:37;;;;;;;10.90;8.23;;;;;;;;;;5092687;28;20557;-58
2021/05/08 06:30:05;;;;;;;9.80;7.60;;;;;;;;;;5092443;28;20699;-58
2021/05/08 06:32:32;;;;;;;9.60;7.07;;;;;;;;;;5092778;28;20599;-58
2021/05/08 06:34:58;;;;;;;11.30;7.07;;;;;;;;;;5092565;28;20203;-56
2021/05/08 06:37:25;;;;;;;9.33;6.70;;;;;;;;;;5092801;28;20204;-59
2021/05/08 06:39:51;;;;;;;11.23;6.87;;;;;;;;;;5092162;28;20212;-58
2021/05/08 06:42:18;;;;;;;11.50;7.20;;;;;;;;;;5092461;28;20318;-58
2021/05/08 06:44:44;;;;;;;8.57;6.30;;;;;;;;;;5092203;28;20211;-56
2021/05/08 06:47:15;;;;;;;8.23;6.50;;;;;;;;;;5092794;28;20216;-58
2021/05/08 06:49:41;;;;;;;8.67;6.43;;;;;;;;;;5092342;28;20727;-59
2021/05/08 06:52:08;;;;;;;10.07;7.07;;;;;;;;;;5092617;28;20233;-58
2021/05/08 06:54:34;;;;;;;9.83;6.63;;;;;;;;;;5090511;28;20212;-59
2021/05/08 06:57:01;;;;;;;10.83;6.30;;;;;;;;;;5091435;28;20201;-58
2021/05/08 06:59:27;;;;;;;9.27;6.73;;;;;;;;;;5092124;28;20206;-59
2021/05/08 07:01:54;;;;;;;8.80;6.27;;;;;;;;;;5092300;28;20213;-59
2021/05/08 07:04:21;;;;;;;9.27;5.67;;;;;;;;;;5092375;28;20220;-58
2021/05/08 07:06:48;;;;;;;8.20;5.73;;;;;;;;;;5092105;28;20218;-58
2021/05/08 07:09:14;;;;;;;7.17;5.50;;;;;;;;;;5092214;28;20615;-58
2021/05/08 07:11:41;;;;;;;8.47;5.27;;;;;;;;;;5091690;28;20737;-58
2021/05/08 07:14:07;;;;;;;7.20;5.03;;;;;;;;;;5092053;28;20238;-56
2021/05/08 07:16:34;;;;;;;6.93;5.00;;;;;;;;;;5092243;28;20211;-57
2021/05/08 07:19:00;;;;;;;6.60;4.30;;;;;;;;;;5092272;28;20222;-58
2021/05/08 07:21:28;;;;;;;6.73;4.30;;;;;;;;;;5092090;28;20207;-57
2021/05/08 07:23:54;;;;;;;7.10;4.47;;;;;;;;;;5091725;28;20228;-58
2021/05/08 07:26:21;;;;;;;5.63;4.37;;;;;;;;;;5091710;28;20211;-56
2021/05/08 07:28:47;;;;;;;7.20;4.60;;;;;;;;;;5092022;28;20250;-57
2021/05/08 07:31:14;;;;;;;7.47;4.60;;;;;;;;;;5091727;28;20254;-59
2021/05/08 07:33:40;;;;;;;7.47;4.40;;;;;;;;;;5091848;28;20580;-59
2021/05/08 07:36:07;;;;;;;7.27;4.27;;;;;;;;;;5091573;28;20207;-57
2021/05/08 07:38:35;;;;;;;8.53;5.27;;;;;;;;;;5077770;28;20266;-57
2021/05/08 07:41:01;;;;;;;8.20;4.33;;;;;;;;;;5070542;28;20270;-56
2021/05/08 07:43:28;;;;;;;6.20;4.70;;;;;;;;;;5071190;28;20233;-57
2021/05/08 07:45:54;;;;;;;5.93;4.30;;;;;;;;;;5071529;28;20211;-57
2021/05/08 07:48:21;;;;;;;6.33;4.33;;;;;;;;;;5075008;28;20208;-57
2021/05/08 07:50:47;;;;;;;9.37;4.60;;;;;;;;;;5075024;28;20587;-57
2021/05/08 07:53:14;;;;;;;7.83;4.57;;;;;;;;;;5074743;28;20237;-57
2021/05/08 07:55:41;;;;;;;6.50;4.03;;;;;;;;;;5074894;28;20208;-57
2021/05/08 07:58:08;;;;;;;6.00;3.90;;;;;;;;;;5074832;28;20203;-62
2021/05/08 08:00:35;;;;;;;6.40;3.67;;;;;;;;;;5075051;28;20209;-62
2021/05/08 08:03:02;;;;;;;5.67;3.80;;;;;;;;;;5074985;28;20270;-61
2021/05/08 08:05:28;;;;;;;9.10;4.13;;;;;;;;;;5074994;28;20211;-60
2021/05/08 08:07:55;;;;;;;5.60;3.50;;;;;;;;;;5074714;28;20836;-64
2021/05/08 08:10:22;;;;;;;7.73;3.67;;;;;;;;;;5074378;28;20217;-64
2021/05/08 08:12:49;;;;;;;6.93;3.73;;;;;;;;;;5075044;28;20233;-64
2021/05/08 08:15:17;;;;;;;5.67;3.60;;;;;;;;;;5074578;28;20673;-61
2021/05/08 08:17:43;;;;;;;5.73;3.60;;;;;;;;;;5074860;28;20268;-61
2021/05/08 08:20:11;;;;;;;5.13;3.43;;;;;;;;;;5074277;28;20231;-68
2021/05/08 08:22:38;;;;;;;5.80;3.93;;;;;;;;;;5074312;28;20221;-62
2021/05/08 08:25:05;;;;;;;9.67;4.73;;;;;;;;;;5074631;28;20262;-64
2021/05/08 08:27:32;;;;;;;5.70;3.77;;;;;;;;;;5074746;28;20209;-63
2021/05/08 08:29:59;;;;;;;6.13;3.60;;;;;;;;;;5074140;28;20254;-64
2021/05/08 08:32:26;;;;;;;6.97;3.43;;;;;;;;;;5074417;28;20222;-62
2021/05/08 08:34:53;;;;;;;5.43;3.20;;;;;;;;;;5074480;28;20209;-63
2021/05/08 08:37:19;;;;;;;4.03;2.77;;;;;;;;;;5074297;28;20596;-62
2021/05/08 08:39:46;;;;;;;4.10;3.30;;;;;;;;;;5073982;28;20231;-62
2021/05/08 08:42:13;;;;;;;9.00;3.70;;;;;;;;;;5074167;28;20232;-61
2021/05/08 08:44:39;;;;;;;4.17;3.03;;;;;;;;;;5075216;28;20247;-60
2021/05/08 08:47:27;;;;;;;5.77;3.60;;;;;;;;;;5094507;28;20212;-61
2021/05/08 08:49:54;;;;;;;4.63;3.20;;;;;;;;;;5093667;28;20210;-62
2021/05/08 08:52:21;;;;;;;7.03;3.20;;;;;;;;;;5094429;28;20231;-60
2021/05/08 08:54:47;;;;;;;5.10;3.10;;;;;;;;;;5094338;28;20211;-60
2021/05/08 08:57:15;;;;;;;6.33;4.00;;;;;;;;;;5093731;28;20575;-61
2021/05/08 08:59:43;;;;;;;6.33;4.00;;;;;;;;;;5093120;28;20904;-60
2021/05/08 09:02:11;;;;;;;7.63;4.10;;;;;;;;;;5093921;28;20200;-60
2021/05/08 09:04:40;;;;;;;7.57;3.57;;;;;;;;;;5094182;28;20258;-61
2021/05/08 09:07:07;;;;;;;6.43;3.70;;;;;;;;;;5093896;28;20221;-61
2021/05/08 09:09:34;;;;;;;5.90;3.10;;;;;;;;;;5093631;28;20207;-60
2021/05/08 09:12:01;;;;;;;6.93;3.33;;;;;;;;;;5093823;28;20233;-59
2021/05/08 09:14:28;;;;;;;5.27;3.37;;;;;;;;;;5093812;28;20256;-60
2021/05/08 09:17:01;;;;;;;4.93;3.17;;;;;;;;;;5093647;28;20269;-59
2021/05/08 09:19:29;;;;;;;5.60;3.03;;;;;;;;;;5093493;28;20213;-60
2021/05/08 09:21:55;;;;;;;7.87;3.47;;;;;;;;;;5093840;28;20226;-59
2021/05/08 09:24:22;;;;;;;6.03;3.03;;;;;;;;;;5093506;28;20238;-61
2021/05/08 09:26:50;;;;;;;5.03;3.17;;;;;;;;;;5093540;28;20206;-60
2021/05/08 09:29:17;;;;;;;5.80;3.10;;;;;;;;;;5093130;28;20248;-61
2021/05/08 09:31:51;;;;;;;6.27;3.90;;;;;;;;;;5093345;28;20769;-61
2021/05/08 09:34:19;;;;;;;16.70;10.17;;;;;;;;;;5093752;28;20224;-61
2021/05/08 09:36:52;;;;;;;6.40;3.07;;;;;;;;;;5093414;28;20200;-62
2021/05/08 09:39:29;;;;;;;4.70;2.87;;;;;;;;;;5093066;28;20210;-65
2021/05/08 09:41:55;;;;;;;7.07;2.73;;;;;;;;;;5093086;28;20217;-59
2021/05/08 09:44:22;;;;;;;7.27;2.57;;;;;;;;;;5093605;28;20259;-64
2021/05/08 09:46:48;;;;;;;7.23;3.30;;;;;;;;;;5093342;28;20207;-62
2021/05/08 09:49:16;;;;;;;4.77;3.07;;;;;;;;;;5092869;28;20294;-62
2021/05/08 09:51:43;;;;;;;5.87;2.90;;;;;;;;;;5092964;28;20317;-59
2021/05/08 09:54:14;;;;;;;7.67;3.03;;;;;;;;;;5093056;28;20221;-61
2021/05/08 09:56:42;;;;;;;4.97;3.40;;;;;;;;;;5093067;28;20212;-59
2021/05/08 09:59:24;;;;;;;4.40;2.70;;;;;;;;;;5092276;28;20222;-61
2021/05/08 10:01:51;;;;;;;5.27;3.10;;;;;;;;;;5093212;28;20298;-60
2021/05/08 10:04:27;;;;;;;4.50;2.83;;;;;;;;;;5092965;28;20706;-62
2021/05/08 10:07:05;;;;;;;6.17;2.60;;;;;;;;;;5092998;28;20210;-61
2021/05/08 10:09:32;;;;;;;3.10;2.33;;;;;;;;;;5092182;28;20662;-62
2021/05/08 10:11:59;;;;;;;4.97;3.00;;;;;;;;;;5093213;28;20219;-63
2021/05/08 10:14:26;;;;;;;8.37;3.30;;;;;;;;;;5093009;28;20224;-62
2021/05/08 10:16:52;;;;;;;4.63;2.87;;;;;;;;;;5092873;28;20219;-63
2021/05/08 10:19:19;;;;;;;6.73;3.37;;;;;;;;;;5091980;28;20452;-62
2021/05/08 10:21:46;;;;;;;7.13;3.27;;;;;;;;;;5092735;28;20208;-64
2021/05/08 10:24:13;;;;;;;4.47;3.20;;;;;;;;;;5092599;28;20246;-63
2021/05/08 10:26:41;;;;;;;4.53;3.13;;;;;;;;;;5092743;28;20579;-60
2021/05/08 10:29:08;;;;;;;5.20;3.40;;;;;;;;;;5092030;28;20214;-63
2021/05/08 10:31:35;;;;;;;6.57;3.60;;;;;;;;;;5092233;28;20588;-62
2021/05/08 10:34:02;;;;;;;5.33;3.23;;;;;;;;;;5092217;28;20227;-67
2021/05/08 10:36:43;;;;;;;6.17;3.57;;;;;;;;;;5092638;28;20234;-66
2021/05/08 10:39:10;;;;;;;5.57;3.47;;;;;;;;;;5091743;28;20211;-65
2021/05/08 10:41:53;;;;;;;7.40;3.37;;;;;;;;;;5092485;28;20196;-66
2021/05/08 10:44:53;;;;;;;7.13;3.73;;;;;;;;;;5092033;28;20239;-68
2021/05/08 10:47:21;;;;;;;7.23;3.93;;;;;;;;;;5029825;28;20248;-66
2021/05/08 10:50:03;;;;;;;7.57;3.93;;;;;;;;;;5029050;28;20555;-66
2021/05/08 10:52:44;;;;;;;5.90;3.43;;;;;;;;;;5064148;28;20238;-66
2021/05/08 10:55:21;;;;;;;6.87;4.20;;;;;;;;;;5091987;28;20212;-66
2021/05/08 10:58:08;;;;;;;6.37;3.80;;;;;;;;;;5092149;28;20214;-68
2021/05/08 11:00:44;;;;;;;5.37;3.70;;;;;;;;;;5091637;28;20200;-68
2021/05/08 11:03:11;;;;;;;4.83;3.23;;;;;;;;;;5091867;28;20711;-67
2021/05/08 11:05:39;;;;;;;6.03;3.20;;;;;;;;;;5092052;28;20734;-65
2021/05/08 11:08:24;;;;;;;4.23;3.10;;;;;;;;;;5091668;28;20220;-70
2021/05/08 11:10:53;;;;;;;6.37;2.97;;;;;;;;;;5091742;28;20261;-67
2021/05/08 11:13:21;;;;;;;4.87;3.23;;;;;;;;;;5091995;28;20607;-67
2021/05/08 11:16:06;;;;;;;6.13;3.37;;;;;;;;;;5092323;28;20214;-63
2021/05/08 11:18:38;;;;;;;7.10;3.20;;;;;;;;;;5091754;28;20211;-64
2021/05/08 11:21:05;;;;;;;5.50;2.93;;;;;;;;;;5090500;28;20226;-64
2021/05/08 11:23:41;;;;;;;4.47;2.70;;;;;;;;;;5091707;28;20220;-64
2021/05/08 11:26:23;;;;;;;4.87;2.63;;;;;;;;;;5091760;28;20211;-64
2021/05/08 11:28:54;;;;;;;5.30;2.70;;;;;;;;;;5091340;28;20207;-64
2021/05/08 11:31:23;;;;;;;3.47;2.73;;;;;;;;;;5091478;28;20213;-64
2021/05/08 11:33:49;;;;;;;4.43;2.70;;;;;;;;;;5091774;28;20232;-64
2021/05/08 11:36:16;;;;;;;3.40;2.43;;;;;;;;;;5091815;28;20204;-64
2021/05/08 11:38:42;;;;;;;4.47;2.63;;;;;;;;;;5091020;28;20208;-64
2021/05/08 11:41:19;;;;;;;4.07;2.87;;;;;;;;;;5091465;28;20204;-64
2021/05/08 11:43:52;;;;;;;5.03;2.47;;;;;;;;;;5091211;28;20246;-64
2021/05/08 11:46:22;;;;;;;5.60;2.77;;;;;;;;;;5091466;28;20250;-66
2021/05/08 11:48:49;;;;;;;4.80;2.23;;;;;;;;;;5091041;28;20204;-67
2021/05/08 11:51:16;;;;;;;3.93;2.17;;;;;;;;;;5091053;28;20212;-68
2021/05/08 11:53:43;;;;;;;4.37;2.47;;;;;;;;;;5091662;28;20273;-67
2021/05/08 11:56:09;;;;;;;3.17;2.17;;;;;;;;;;5091490;28;20250;-67
2021/05/08 11:58:36;;;;;;;4.63;2.90;;;;;;;;;;5091355;28;20200;-68
2021/05/08 12:01:03;;;;;;;3.90;2.83;;;;;;;;;;5091277;28;20297;-66
2021/05/08 12:03:30;;;;;;;3.80;3.00;;;;;;;;;;5091161;28;20221;-65
2021/05/08 12:05:57;;;;;;;7.17;2.80;;;;;;;;;;5091346;28;20206;-67
2021/05/08 12:08:24;;;;;;;4.37;2.40;;;;;;;;;;5091399;28;20652;-64
2021/05/08 12:10:51;;;;;;;5.27;2.33;;;;;;;;;;5091260;28;20234;-59
2021/05/08 12:13:17;;;;;;;5.47;2.57;;;;;;;;;;5090893;28;20233;-59
2021/05/08 12:15:45;;;;;;;2.80;2.23;;;;;;;;;;5089755;28;20209;-59
2021/05/08 12:18:12;;;;;;;4.30;2.30;;;;;;;;;;5089166;28;20784;-59
2021/05/08 12:20:42;;;;;;;4.80;2.60;;;;;;;;;;5089385;28;20576;-59
2021/05/08 12:23:10;;;;;;;5.90;2.70;;;;;;;;;;5089515;28;20589;-59
2021/05/08 12:25:37;;;;;;;3.07;2.30;;;;;;;;;;5090591;28;20208;-59
2021/05/08 12:28:13;;;;;;;3.27;1.80;;;;;;;;;;5090836;28;20200;-59
2021/05/08 12:30:39;;;;;;;5.47;2.10;;;;;;;;;;5090796;28;20664;-59
2021/05/08 12:33:06;;;;;;;3.73;1.93;;;;;;;;;;5093396;28;20243;-59
2021/05/08 12:35:32;;;;;;;4.33;2.03;;;;;;;;;;5094897;28;20310;-59
2021/05/08 12:38:00;;;;;;;2.40;1.83;;;;;;;;;;5095121;28;20205;-59
2021/05/08 12:40:33;;;;;;;3.83;2.03;;;;;;;;;;5094589;28;20208;-59
2021/05/08 12:42:59;;;;;;;3.03;1.90;;;;;;;;;;5094518;28;20239;-59
2021/05/08 12:45:26;;;;;;;2.93;2.17;;;;;;;;;;5094875;28;20305;-60
2021/05/08 12:47:52;;;;;;;3.00;2.30;;;;;;;;;;5094896;28;20212;-59
2021/05/08 12:50:24;;;;;;;2.70;1.93;;;;;;;;;;5094609;28;20205;-59
2021/05/08 12:52:58;;;;;;;3.97;2.27;;;;;;;;;;5094521;28;20234;-60
2021/05/08 12:55:27;;;;;;;5.50;2.70;;;;;;;;;;5094716;28;20221;-61
2021/05/08 12:57:53;;;;;;;3.83;2.77;;;;;;;;;;5094552;28;20213;-59
2021/05/08 13:00:21;;;;;;;3.00;2.43;;;;;;;;;;5094641;28;20757;-57
2021/05/08 13:02:48;;;;;;;4.13;2.70;;;;;;;;;;5095270;28;20220;-59
2021/05/08 13:05:15;;;;;;;3.23;2.43;;;;;;;;;;5095897;28;20216;-58
2021/05/08 13:07:51;;;;;;;3.80;2.67;;;;;;;;;;5094793;28;20215;-53
2021/05/08 13:10:19;;;;;;;2.30;2.00;;;;;;;;;;5094196;28;20208;-55
2021/05/08 13:12:48;;;;;;;3.70;2.87;;;;;;;;;;5094620;28;20224;-58
2021/05/08 13:15:15;;;;;;;4.67;2.40;;;;;;;;;;5095877;28;20209;-56
2021/05/08 13:17:42;;;;;;;4.97;2.50;;;;;;;;;;5095896;28;20208;-56
2021/05/08 13:20:09;;;;;;;2.80;2.53;;;;;;;;;;5094503;28;20668;-55
2021/05/08 13:22:37;;;;;;;4.43;2.87;;;;;;;;;;5093844;28;20838;-58
2021/05/08 13:25:04;;;;;;;4.27;2.60;;;;;;;;;;5094159;28;20205;-54
2021/05/08 13:27:32;;;;;;;4.13;2.77;;;;;;;;;;5094228;28;20245;-56
2021/05/08 13:29:59;;;;;;;2.73;2.40;;;;;;;;;;5094151;28;20208;-56
2021/05/08 13:32:25;;;;;;;3.57;2.50;;;;;;;;;;5093710;28;20227;-57
2021/05/08 13:34:52;;;;;;;3.37;2.50;;;;;;;;;;5094211;28;20665;-54
2021/05/08 13:37:19;;;;;;;5.73;2.20;;;;;;;;;;5094153;28;20672;-57
2021/05/08 13:39:45;;;;;;;3.13;2.37;;;;;;;;;;5093452;28;20681;-55
2021/05/08 13:42:14;;;;;;;3.17;2.40;;;;;;;;;;5093715;28;20212;-57
2021/05/08 13:44:40;;;;;;;3.20;2.27;;;;;;;;;;5093065;28;20232;-56
2021/05/08 13:47:10;;;;;;;6.50;2.37;;;;;;;;;;5093684;28;20208;-52
2021/05/08 13:49:36;;;;;;;3.73;2.50;;;;;;;;;;5093337;28;20212;-60
2021/05/08 13:52:03;;;;;;;4.83;2.50;;;;;;;;;;5092867;28;20284;-55
2021/05/08 13:54:29;;;;;;;2.83;2.27;;;;;;;;;;5093633;28;20224;-57
2021/05/08 13:56:56;;;;;;;2.57;1.93;;;;;;;;;;5093591;28;20196;-54
2021/05/08 13:59:23;;;;;;;4.90;2.50;;;;;;;;;;5093399;28;20204;-56
2021/05/08 14:01:49;;;;;;;3.83;2.30;;;;;;;;;;5093149;28;20205;-56
2021/05/08 14:04:16;;;;;;;3.80;2.00;;;;;;;;;;5092830;28;20225;-52
2021/05/08 14:06:45;;;;;;;4.10;2.30;;;;;;;;;;5093173;28;20220;-53
2021/05/08 14:09:11;;;;;;;3.03;1.83;;;;;;;;;;5093363;28;20313;-56
2021/05/08 14:11:38;;;;;;;5.40;2.10;;;;;;;;;;5093344;28;20215;-54
2021/05/08 14:14:04;;;;;;;4.43;2.13;;;;;;;;;;5093150;28;20235;-56
2021/05/08 14:16:31;;;;;;;3.07;1.87;;;;;;;;;;5093187;28;20258;-55
2021/05/08 14:18:57;;;;;;;3.77;2.23;;;;;;;;;;5093068;28;20265;-56
2021/05/08 14:21:26;;;;;;;3.83;2.10;;;;;;;;;;5093091;28;20204;-55
2021/05/08 14:23:53;;;;;;;4.00;1.67;;;;;;;;;;5092951;28;20217;-53
2021/05/08 14:26:20;;;;;;;4.23;1.90;;;;;;;;;;5092828;28;20578;-58
2021/05/08 14:28:46;;;;;;;3.10;1.80;;;;;;;;;;5085458;28;20216;-63
2021/05/08 14:31:13;;;;;;;2.47;1.80;;;;;;;;;;5071622;28;20209;-64
2021/05/08 14:33:39;;;;;;;2.63;1.70;;;;;;;;;;5071746;28;20702;-66